sensor_id;sensor_type;location;lat;lon;timestamp;P1;durP1;ratioP1;P2;durP2;ratioP2
76749;SDS011;66447;35.844;14.468;2023-06-10T00:01:47;14.10;;;6.90;;
76749;SDS011;66447;35.844;14.468;2023-06-10T00:16:47;9.38;;;6.30;;
76749;SDS011;66447;35.844;14.468;2023-06-10T00:31:49;20.17;;;7.88;;
76749;SDS011;66447;35.844;14.468;2023-06-10T00:46:50;16.47;;;7.13;;
76749;SDS011;66447;35.844;14.468;2023-06-10T01:01:53;12.70;;;7.22;;
76749;SDS011;66447;35.844;14.468;2023-06-10T01:16:53;14.30;;;7.05;;
76749;SDS011;66447;35.844;14.468;2023-06-10T01:31:58;14.07;;;6.63;;
76749;SDS011;66447;35.844;14.468;2023-06-10T01:47:21;12.20;;;6.05;;
76749;SDS011;66447;35.844;14.468;2023-06-10T02:02:22;13.57;;;6.03;;
76749;SDS011;66447;35.844;14.468;2023-06-10T02:17:24;13.65;;;5.78;;
76749;SDS011;66447;35.844;14.468;2023-06-10T02:32:26;13.98;;;5.57;;
76749;SDS011;66447;35.844;14.468;2023-06-10T02:47:28;14.63;;;6.13;;
76749;SDS011;66447;35.844;14.468;2023-06-10T03:02:29;21.00;;;6.38;;
76749;SDS011;66447;35.844;14.468;2023-06-10T03:17:31;19.98;;;6.07;;
76749;SDS011;66447;35.844;14.468;2023-06-10T03:32:32;13.47;;;5.90;;
76749;SDS011;66447;35.844;14.468;2023-06-10T03:47:34;12.43;;;5.20;;
76749;SDS011;66447;35.844;14.468;2023-06-10T04:02:38;17.90;;;6.00;;
76749;SDS011;66447;35.844;14.468;2023-06-10T04:17:45;13.10;;;5.03;;
76749;SDS011;66447;35.844;14.468;2023-06-10T04:32:47;17.38;;;4.53;;
76749;SDS011;66447;35.844;14.468;2023-06-10T04:47:48;15.55;;;4.63;;
76749;SDS011;66447;35.844;14.468;2023-06-10T05:02:49;14.75;;;4.78;;
76749;SDS011;66447;35.844;14.468;2023-06-10T05:17:51;14.13;;;4.95;;
76749;SDS011;66447;35.844;14.468;2023-06-10T05:32:52;13.73;;;4.67;;
76749;SDS011;66447;35.844;14.468;2023-06-10T05:47:53;17.20;;;5.80;;
76749;SDS011;66447;35.844;14.468;2023-06-10T06:02:54;19.80;;;6.70;;
76749;SDS011;66447;35.844;14.468;2023-06-10T06:17:57;14.90;;;6.40;;
76749;SDS011;66447;35.844;14.468;2023-06-10T06:32:58;18.60;;;6.28;;
76749;SDS011;66447;35.844;14.468;2023-06-10T06:47:59;22.87;;;6.07;;
76749;SDS011;66447;35.844;14.468;2023-06-10T07:03:00;21.40;;;6.80;;
76749;SDS011;66447;35.844;14.468;2023-06-10T07:18:01;24.85;;;11.25;;
76749;SDS011;66447;35.844;14.468;2023-06-10T07:33:02;21.25;;;6.53;;
76749;SDS011;66447;35.844;14.468;2023-06-10T07:48:03;23.27;;;6.90;;
76749;SDS011;66447;35.844;14.468;2023-06-10T08:03:04;24.30;;;8.77;;
76749;SDS011;66447;35.844;14.468;2023-06-10T08:18:05;28.13;;;9.17;;
76749;SDS011;66447;35.844;14.468;2023-06-10T08:33:06;18.23;;;8.65;;
76749;SDS011;66447;35.844;14.468;2023-06-10T08:48:07;18.75;;;8.10;;
76749;SDS011;66447;35.844;14.468;2023-06-10T09:03:08;25.40;;;8.35;;
76749;SDS011;66447;35.844;14.468;2023-06-10T09:18:09;35.47;;;10.17;;
76749;SDS011;66447;35.844;14.468;2023-06-10T09:33:12;20.08;;;7.38;;
76749;SDS011;66447;35.844;14.468;2023-06-10T09:48:17;18.98;;;10.98;;
76749;SDS011;66447;35.844;14.468;2023-06-10T10:03:24;12.73;;;6.20;;
76749;SDS011;66447;35.844;14.468;2023-06-10T10:18:25;14.52;;;5.55;;
76749;SDS011;66447;35.844;14.468;2023-06-10T10:33:40;13.50;;;6.83;;
76749;SDS011;66447;35.844;14.468;2023-06-10T10:49:02;19.53;;;6.57;;
76749;SDS011;66447;35.844;14.468;2023-06-10T11:04:03;30.83;;;7.27;;
76749;SDS011;66447;35.844;14.468;2023-06-10T11:19:09;19.47;;;5.67;;
76749;SDS011;66447;35.844;14.468;2023-06-10T11:34:10;21.40;;;5.63;;
76749;SDS011;66447;35.844;14.468;2023-06-10T11:49:12;16.73;;;4.10;;
76749;SDS011;66447;35.844;14.468;2023-06-10T12:04:14;10.48;;;3.70;;
76749;SDS011;66447;35.844;14.468;2023-06-10T12:19:18;12.87;;;4.53;;
76749;SDS011;66447;35.844;14.468;2023-06-10T12:34:19;15.87;;;3.87;;
76749;SDS011;66447;35.844;14.468;2023-06-10T12:49:20;19.17;;;4.77;;
76749;SDS011;66447;35.844;14.468;2023-06-10T13:04:26;23.17;;;6.30;;
76749;SDS011;66447;35.844;14.468;2023-06-10T13:19:27;14.77;;;5.10;;
76749;SDS011;66447;35.844;14.468;2023-06-10T13:34:28;19.63;;;6.18;;
76749;SDS011;66447;35.844;14.468;2023-06-10T13:49:29;14.07;;;5.83;;
76749;SDS011;66447;35.844;14.468;2023-06-10T14:04:31;16.07;;;6.50;;
76749;SDS011;66447;35.844;14.468;2023-06-10T14:19:32;14.47;;;6.40;;
76749;SDS011;66447;35.844;14.468;2023-06-10T14:34:34;17.17;;;7.80;;
76749;SDS011;66447;35.844;14.468;2023-06-10T14:49:35;17.90;;;7.50;;
76749;SDS011;66447;35.844;14.468;2023-06-10T15:04:36;24.03;;;8.43;;
76749;SDS011;66447;35.844;14.468;2023-06-10T15:19:37;20.50;;;8.53;;
76749;SDS011;66447;35.844;14.468;2023-06-10T15:34:38;23.83;;;9.05;;
76749;SDS011;66447;35.844;14.468;2023-06-10T15:49:39;26.30;;;12.13;;
76749;SDS011;66447;35.844;14.468;2023-06-10T16:04:40;20.20;;;10.68;;
76749;SDS011;66447;35.844;14.468;2023-06-10T16:19:41;22.53;;;7.27;;
76749;SDS011;66447;35.844;14.468;2023-06-10T16:34:42;19.70;;;6.27;;
76749;SDS011;66447;35.844;14.468;2023-06-10T16:49:43;18.40;;;5.70;;
76749;SDS011;66447;35.844;14.468;2023-06-10T17:04:44;23.40;;;7.80;;
76749;SDS011;66447;35.844;14.468;2023-06-10T17:19:45;29.42;;;11.60;;
76749;SDS011;66447;35.844;14.468;2023-06-10T17:34:47;25.65;;;8.30;;
76749;SDS011;66447;35.844;14.468;2023-06-10T17:49:48;20.60;;;5.15;;
76749;SDS011;66447;35.844;14.468;2023-06-10T18:04:49;16.58;;;5.50;;
76749;SDS011;66447;35.844;14.468;2023-06-10T18:19:50;19.00;;;5.75;;
76749;SDS011;66447;35.844;14.468;2023-06-10T18:34:51;19.80;;;7.03;;
76749;SDS011;66447;35.844;14.468;2023-06-10T18:49:52;23.58;;;11.15;;
76749;SDS011;66447;35.844;14.468;2023-06-10T19:04:54;23.58;;;10.48;;
76749;SDS011;66447;35.844;14.468;2023-06-10T19:19:55;23.87;;;11.07;;
76749;SDS011;66447;35.844;14.468;2023-06-10T19:34:56;23.88;;;12.98;;
76749;SDS011;66447;35.844;14.468;2023-06-10T19:49:57;28.25;;;14.35;;
76749;SDS011;66447;35.844;14.468;2023-06-10T20:04:59;32.42;;;17.60;;
76749;SDS011;66447;35.844;14.468;2023-06-10T20:20:00;32.58;;;18.00;;
76749;SDS011;66447;35.844;14.468;2023-06-10T20:35:01;36.25;;;19.45;;
76749;SDS011;66447;35.844;14.468;2023-06-10T20:50:03;31.77;;;19.13;;
76749;SDS011;66447;35.844;14.468;2023-06-10T21:05:04;28.38;;;16.80;;
76749;SDS011;66447;35.844;14.468;2023-06-10T21:20:06;31.58;;;16.27;;
76749;SDS011;66447;35.844;14.468;2023-06-10T21:35:07;37.97;;;23.23;;
76749;SDS011;66447;35.844;14.468;2023-06-10T21:50:09;39.63;;;24.92;;
76749;SDS011;66447;35.844;14.468;2023-06-10T22:05:10;36.17;;;20.60;;
76749;SDS011;66447;35.844;14.468;2023-06-10T22:20:11;42.73;;;22.07;;
76749;SDS011;66447;35.844;14.468;2023-06-10T22:35:13;33.63;;;18.45;;
76749;SDS011;66447;35.844;14.468;2023-06-10T22:50:14;32.00;;;20.00;;
76749;SDS011;66447;35.844;14.468;2023-06-10T23:05:15;33.47;;;19.65;;
76749;SDS011;66447;35.844;14.468;2023-06-10T23:20:16;45.70;;;25.55;;
76749;SDS011;66447;35.844;14.468;2023-06-10T23:35:20;52.78;;;30.38;;
76749;SDS011;66447;35.844;14.468;2023-06-10T23:50:21;50.33;;;30.67;;
